sensor_id;sensor_type;location;lat;lon;timestamp;temperature;humidity
22364;DHT22;11349;53.412;-1.328;2022-12-18T00:01:21;1.40;99.90
22364;DHT22;11349;53.412;-1.328;2022-12-18T00:03:48;1.40;99.90
22364;DHT22;11349;53.412;-1.328;2022-12-18T00:06:18;1.60;99.90
22364;DHT22;11349;53.412;-1.328;2022-12-18T00:08:44;2.00;99.90
22364;DHT22;11349;53.412;-1.328;2022-12-18T00:11:14;2.40;99.90
22364;DHT22;11349;53.412;-1.328;2022-12-18T00:13:40;3.30;99.90
22364;DHT22;11349;53.412;-1.328;2022-12-18T00:16:09;3.20;99.90
22364;DHT22;11349;53.412;-1.328;2022-12-18T00:18:35;3.10;99.90
22364;DHT22;11349;53.412;-1.328;2022-12-18T00:21:03;2.60;99.90
22364;DHT22;11349;53.412;-1.328;2022-12-18T00:23:30;2.60;99.90
22364;DHT22;11349;53.412;-1.328;2022-12-18T00:26:00;2.60;99.90
22364;DHT22;11349;53.412;-1.328;2022-12-18T00:28:27;2.20;99.90
22364;DHT22;11349;53.412;-1.328;2022-12-18T00:31:20;2.10;99.90
22364;DHT22;11349;53.412;-1.328;2022-12-18T00:33:46;2.50;99.90
22364;DHT22;11349;53.412;-1.328;2022-12-18T00:36:18;2.30;99.90
22364;DHT22;11349;53.412;-1.328;2022-12-18T00:38:45;2.20;99.90
22364;DHT22;11349;53.412;-1.328;2022-12-18T00:41:12;2.30;99.90
22364;DHT22;11349;53.412;-1.328;2022-12-18T00:43:39;2.00;99.90
22364;DHT22;11349;53.412;-1.328;2022-12-18T00:46:05;1.90;99.90
22364;DHT22;11349;53.412;-1.328;2022-12-18T00:48:31;1.80;99.90
22364;DHT22;11349;53.412;-1.328;2022-12-18T00:50:57;1.60;99.90
22364;DHT22;11349;53.412;-1.328;2022-12-18T00:53:23;1.40;99.90
22364;DHT22;11349;53.412;-1.328;2022-12-18T00:55:48;1.40;99.90
22364;DHT22;11349;53.412;-1.328;2022-12-18T00:58:16;1.30;99.90
22364;DHT22;11349;53.412;-1.328;2022-12-18T01:00:42;1.40;99.90
22364;DHT22;11349;53.412;-1.328;2022-12-18T01:03:09;1.20;99.90
22364;DHT22;11349;53.412;-1.328;2022-12-18T01:05:40;1.00;99.90
22364;DHT22;11349;53.412;-1.328;2022-12-18T01:08:06;1.10;99.90
22364;DHT22;11349;53.412;-1.328;2022-12-18T01:10:32;1.10;99.90
22364;DHT22;11349;53.412;-1.328;2022-12-18T01:12:57;1.30;99.90
22364;DHT22;11349;53.412;-1.328;2022-12-18T01:15:23;1.20;99.90
22364;DHT22;11349;53.412;-1.328;2022-12-18T01:17:49;1.10;99.90
22364;DHT22;11349;53.412;-1.328;2022-12-18T01:20:17;1.20;99.90
22364;DHT22;11349;53.412;-1.328;2022-12-18T01:22:42;1.50;99.90
22364;DHT22;11349;53.412;-1.328;2022-12-18T01:25:08;1.70;99.90
22364;DHT22;11349;53.412;-1.328;2022-12-18T01:27:34;2.00;99.90
22364;DHT22;11349;53.412;-1.328;2022-12-18T01:30:00;1.50;99.90
22364;DHT22;11349;53.412;-1.328;2022-12-18T01:32:26;1.20;99.90
22364;DHT22;11349;53.412;-1.328;2022-12-18T01:34:51;1.10;99.90
22364;DHT22;11349;53.412;-1.328;2022-12-18T01:37:17;1.00;99.90
22364;DHT22;11349;53.412;-1.328;2022-12-18T01:39:43;0.90;99.90
22364;DHT22;11349;53.412;-1.328;2022-12-18T01:42:13;0.80;99.90
22364;DHT22;11349;53.412;-1.328;2022-12-18T01:50:02;0.80;99.90
22364;DHT22;11349;53.412;-1.328;2022-12-18T01:52:31;1.50;99.90
22364;DHT22;11349;53.412;-1.328;2022-12-18T01:54:59;1.80;99.90
22364;DHT22;11349;53.412;-1.328;2022-12-18T01:57:26;1.90;99.90
22364;DHT22;11349;53.412;-1.328;2022-12-18T01:59:55;2.50;99.90
22364;DHT22;11349;53.412;-1.328;2022-12-18T02:02:22;2.60;99.90
22364;DHT22;11349;53.412;-1.328;2022-12-18T02:04:48;2.70;99.90
22364;DHT22;11349;53.412;-1.328;2022-12-18T02:12:23;2.90;99.90
22364;DHT22;11349;53.412;-1.328;2022-12-18T02:17:22;3.40;99.90
22364;DHT22;11349;53.412;-1.328;2022-12-18T02:25:38;3.00;99.90
22364;DHT22;11349;53.412;-1.328;2022-12-18T02:28:09;2.70;99.90
22364;DHT22;11349;53.412;-1.328;2022-12-18T02:30:35;2.90;99.90
22364;DHT22;11349;53.412;-1.328;2022-12-18T02:33:04;3.10;99.90
22364;DHT22;11349;53.412;-1.328;2022-12-18T02:35:30;3.40;99.90
22364;DHT22;11349;53.412;-1.328;2022-12-18T02:37:58;3.00;99.90
22364;DHT22;11349;53.412;-1.328;2022-12-18T02:40:26;2.90;99.90
22364;DHT22;11349;53.412;-1.328;2022-12-18T02:42:53;2.50;99.90
22364;DHT22;11349;53.412;-1.328;2022-12-18T02:45:18;2.50;99.90
22364;DHT22;11349;53.412;-1.328;2022-12-18T02:47:47;2.40;99.90
22364;DHT22;11349;53.412;-1.328;2022-12-18T02:50:36;1.80;99.90
22364;DHT22;11349;53.412;-1.328;2022-12-18T02:58:59;1.70;99.90
22364;DHT22;11349;53.412;-1.328;2022-12-18T03:01:31;1.40;99.90
22364;DHT22;11349;53.412;-1.328;2022-12-18T03:04:09;1.40;99.90
22364;DHT22;11349;53.412;-1.328;2022-12-18T03:06:43;1.20;99.90
22364;DHT22;11349;53.412;-1.328;2022-12-18T03:09:14;1.00;99.90
22364;DHT22;11349;53.412;-1.328;2022-12-18T03:11:45;1.10;99.90
22364;DHT22;11349;53.412;-1.328;2022-12-18T03:14:32;1.30;99.90
22364;DHT22;11349;53.412;-1.328;2022-12-18T03:17:02;0.90;99.90
22364;DHT22;11349;53.412;-1.328;2022-12-18T03:19:32;0.80;99.90
22364;DHT22;11349;53.412;-1.328;2022-12-18T03:22:00;0.60;99.90
22364;DHT22;11349;53.412;-1.328;2022-12-18T03:24:28;0.60;99.90
22364;DHT22;11349;53.412;-1.328;2022-12-18T03:26:58;0.40;99.90
22364;DHT22;11349;53.412;-1.328;2022-12-18T03:32:03;0.50;99.90
22364;DHT22;11349;53.412;-1.328;2022-12-18T03:34:35;0.40;99.90
22364;DHT22;11349;53.412;-1.328;2022-12-18T03:37:03;0.30;99.90
22364;DHT22;11349;53.412;-1.328;2022-12-18T03:39:30;0.30;99.90
22364;DHT22;11349;53.412;-1.328;2022-12-18T03:42:04;0.20;99.90
22364;DHT22;11349;53.412;-1.328;2022-12-18T03:48:00;0.10;99.90
22364;DHT22;11349;53.412;-1.328;2022-12-18T03:50:48;0.10;99.90
22364;DHT22;11349;53.412;-1.328;2022-12-18T03:56:13;0.00;99.90
22364;DHT22;11349;53.412;-1.328;2022-12-18T03:58:41;-0.10;99.90
22364;DHT22;11349;53.412;-1.328;2022-12-18T04:01:12;0.00;99.90
22364;DHT22;11349;53.412;-1.328;2022-12-18T04:03:39;0.30;99.90
22364;DHT22;11349;53.412;-1.328;2022-12-18T04:06:06;0.60;99.90
22364;DHT22;11349;53.412;-1.328;2022-12-18T04:08:33;0.90;99.90
22364;DHT22;11349;53.412;-1.328;2022-12-18T04:11:00;1.40;99.90
22364;DHT22;11349;53.412;-1.328;2022-12-18T04:13:33;1.70;99.90
22364;DHT22;11349;53.412;-1.328;2022-12-18T04:15:59;1.80;99.90
22364;DHT22;11349;53.412;-1.328;2022-12-18T04:18:25;1.80;99.90
22364;DHT22;11349;53.412;-1.328;2022-12-18T04:20:51;1.60;99.90
22364;DHT22;11349;53.412;-1.328;2022-12-18T04:23:17;1.20;99.90
22364;DHT22;11349;53.412;-1.328;2022-12-18T04:25:42;1.30;99.90
22364;DHT22;11349;53.412;-1.328;2022-12-18T04:28:08;1.00;1.00
22364;DHT22;11349;53.412;-1.328;2022-12-18T04:30:34;0.80;1.00
22364;DHT22;11349;53.412;-1.328;2022-12-18T04:32:59;0.60;99.90
22364;DHT22;11349;53.412;-1.328;2022-12-18T04:35:25;0.50;99.90
22364;DHT22;11349;53.412;-1.328;2022-12-18T04:37:51;0.70;99.90
22364;DHT22;11349;53.412;-1.328;2022-12-18T04:40:17;0.60;99.90
22364;DHT22;11349;53.412;-1.328;2022-12-18T04:42:43;0.40;99.90
22364;DHT22;11349;53.412;-1.328;2022-12-18T04:45:09;0.30;99.90
22364;DHT22;11349;53.412;-1.328;2022-12-18T04:47:34;0.10;99.90
22364;DHT22;11349;53.412;-1.328;2022-12-18T04:50:00;0.10;99.90
22364;DHT22;11349;53.412;-1.328;2022-12-18T04:52:26;0.10;99.90
22364;DHT22;11349;53.412;-1.328;2022-12-18T04:54:52;0.10;99.90
22364;DHT22;11349;53.412;-1.328;2022-12-18T04:57:20;0.00;99.90
22364;DHT22;11349;53.412;-1.328;2022-12-18T04:59:46;0.10;99.90
22364;DHT22;11349;53.412;-1.328;2022-12-18T05:02:12;0.40;99.90
22364;DHT22;11349;53.412;-1.328;2022-12-18T05:04:37;0.30;99.90
22364;DHT22;11349;53.412;-1.328;2022-12-18T05:07:04;0.20;99.90
22364;DHT22;11349;53.412;-1.328;2022-12-18T05:09:29;0.10;99.90
22364;DHT22;11349;53.412;-1.328;2022-12-18T05:11:55;0.20;99.90
22364;DHT22;11349;53.412;-1.328;2022-12-18T05:14:21;0.00;99.90
22364;DHT22;11349;53.412;-1.328;2022-12-18T05:16:47;0.10;99.90
22364;DHT22;11349;53.412;-1.328;2022-12-18T05:19:12;0.20;99.90
22364;DHT22;11349;53.412;-1.328;2022-12-18T05:21:38;0.20;99.90
22364;DHT22;11349;53.412;-1.328;2022-12-18T05:24:04;0.40;99.90
22364;DHT22;11349;53.412;-1.328;2022-12-18T05:26:30;0.50;99.90
22364;DHT22;11349;53.412;-1.328;2022-12-18T05:28:55;0.30;99.90
22364;DHT22;11349;53.412;-1.328;2022-12-18T05:31:21;0.50;99.90
22364;DHT22;11349;53.412;-1.328;2022-12-18T05:33:47;1.20;99.90
22364;DHT22;11349;53.412;-1.328;2022-12-18T05:36:16;1.70;99.90
22364;DHT22;11349;53.412;-1.328;2022-12-18T05:38:41;1.80;99.90
22364;DHT22;11349;53.412;-1.328;2022-12-18T05:41:08;2.80;99.90
22364;DHT22;11349;53.412;-1.328;2022-12-18T05:43:36;3.40;99.90
22364;DHT22;11349;53.412;-1.328;2022-12-18T05:46:06;3.10;99.90
22364;DHT22;11349;53.412;-1.328;2022-12-18T05:48:33;2.60;99.90
22364;DHT22;11349;53.412;-1.328;2022-12-18T05:51:07;3.00;99.90
22364;DHT22;11349;53.412;-1.328;2022-12-18T05:53:35;2.30;99.90
22364;DHT22;11349;53.412;-1.328;2022-12-18T05:56:03;2.20;99.90
22364;DHT22;11349;53.412;-1.328;2022-12-18T05:58:30;1.80;99.90
22364;DHT22;11349;53.412;-1.328;2022-12-18T06:00:56;1.80;99.90
22364;DHT22;11349;53.412;-1.328;2022-12-18T06:03:22;1.80;99.90
22364;DHT22;11349;53.412;-1.328;2022-12-18T06:05:48;1.80;99.90
22364;DHT22;11349;53.412;-1.328;2022-12-18T06:08:14;1.30;99.90
22364;DHT22;11349;53.412;-1.328;2022-12-18T06:10:40;1.10;99.90
22364;DHT22;11349;53.412;-1.328;2022-12-18T06:13:06;1.10;99.90
22364;DHT22;11349;53.412;-1.328;2022-12-18T06:15:33;1.00;99.90
22364;DHT22;11349;53.412;-1.328;2022-12-18T06:18:01;0.90;99.90
22364;DHT22;11349;53.412;-1.328;2022-12-18T06:20:27;1.60;99.90
22364;DHT22;11349;53.412;-1.328;2022-12-18T06:22:53;1.50;99.90
22364;DHT22;11349;53.412;-1.328;2022-12-18T06:25:18;1.30;99.90
22364;DHT22;11349;53.412;-1.328;2022-12-18T06:27:44;1.90;99.90
22364;DHT22;11349;53.412;-1.328;2022-12-18T06:30:12;1.20;99.90
22364;DHT22;11349;53.412;-1.328;2022-12-18T06:32:38;1.20;99.90
22364;DHT22;11349;53.412;-1.328;2022-12-18T06:35:04;1.60;99.90
22364;DHT22;11349;53.412;-1.328;2022-12-18T06:37:31;1.50;99.90
22364;DHT22;11349;53.412;-1.328;2022-12-18T06:39:57;1.10;99.90
22364;DHT22;11349;53.412;-1.328;2022-12-18T06:42:23;0.90;99.90
22364;DHT22;11349;53.412;-1.328;2022-12-18T06:44:49;0.90;99.90
22364;DHT22;11349;53.412;-1.328;2022-12-18T06:47:15;0.80;99.90
22364;DHT22;11349;53.412;-1.328;2022-12-18T06:49:41;0.80;99.90
22364;DHT22;11349;53.412;-1.328;2022-12-18T06:52:06;0.60;99.90
22364;DHT22;11349;53.412;-1.328;2022-12-18T06:54:32;0.60;99.90
22364;DHT22;11349;53.412;-1.328;2022-12-18T06:56:58;0.80;99.90
22364;DHT22;11349;53.412;-1.328;2022-12-18T06:59:23;0.80;99.90
22364;DHT22;11349;53.412;-1.328;2022-12-18T07:01:49;1.20;99.90
22364;DHT22;11349;53.412;-1.328;2022-12-18T07:04:15;1.10;99.90
22364;DHT22;11349;53.412;-1.328;2022-12-18T07:06:41;1.20;99.90
22364;DHT22;11349;53.412;-1.328;2022-12-18T07:09:06;1.50;99.90
22364;DHT22;11349;53.412;-1.328;2022-12-18T07:11:33;0.80;99.90
22364;DHT22;11349;53.412;-1.328;2022-12-18T07:13:58;1.30;99.90
22364;DHT22;11349;53.412;-1.328;2022-12-18T07:16:24;0.90;99.90
22364;DHT22;11349;53.412;-1.328;2022-12-18T07:18:50;1.30;99.90
22364;DHT22;11349;53.412;-1.328;2022-12-18T07:21:19;1.30;99.90
22364;DHT22;11349;53.412;-1.328;2022-12-18T07:23:45;1.20;99.90
22364;DHT22;11349;53.412;-1.328;2022-12-18T07:26:14;0.80;99.90
22364;DHT22;11349;53.412;-1.328;2022-12-18T07:28:41;0.80;99.90
22364;DHT22;11349;53.412;-1.328;2022-12-18T07:31:10;0.50;99.90
22364;DHT22;11349;53.412;-1.328;2022-12-18T07:33:36;0.40;99.90
22364;DHT22;11349;53.412;-1.328;2022-12-18T07:36:03;0.70;99.90
22364;DHT22;11349;53.412;-1.328;2022-12-18T07:38:30;1.40;99.90
22364;DHT22;11349;53.412;-1.328;2022-12-18T07:41:14;0.90;99.90
22364;DHT22;11349;53.412;-1.328;2022-12-18T07:43:41;0.50;99.90
22364;DHT22;11349;53.412;-1.328;2022-12-18T07:46:07;0.40;99.90
22364;DHT22;11349;53.412;-1.328;2022-12-18T07:48:34;0.60;99.90
22364;DHT22;11349;53.412;-1.328;2022-12-18T07:51:04;0.60;99.90
22364;DHT22;11349;53.412;-1.328;2022-12-18T07:53:32;0.40;99.90
22364;DHT22;11349;53.412;-1.328;2022-12-18T07:56:00;0.30;99.90
22364;DHT22;11349;53.412;-1.328;2022-12-18T07:58:26;0.40;99.90
22364;DHT22;11349;53.412;-1.328;2022-12-18T08:00:52;0.80;99.90
22364;DHT22;11349;53.412;-1.328;2022-12-18T08:03:18;0.50;99.90
22364;DHT22;11349;53.412;-1.328;2022-12-18T08:05:44;0.50;99.90
22364;DHT22;11349;53.412;-1.328;2022-12-18T08:08:11;0.70;99.90
22364;DHT22;11349;53.412;-1.328;2022-12-18T08:10:37;0.40;99.90
22364;DHT22;11349;53.412;-1.328;2022-12-18T08:13:04;0.30;99.90
22364;DHT22;11349;53.412;-1.328;2022-12-18T08:15:30;0.50;99.90
22364;DHT22;11349;53.412;-1.328;2022-12-18T08:17:58;0.40;99.90
22364;DHT22;11349;53.412;-1.328;2022-12-18T08:20:24;0.40;99.90
22364;DHT22;11349;53.412;-1.328;2022-12-18T08:22:50;0.30;99.90
22364;DHT22;11349;53.412;-1.328;2022-12-18T08:25:15;0.20;99.90
22364;DHT22;11349;53.412;-1.328;2022-12-18T08:27:41;0.50;99.90
22364;DHT22;11349;53.412;-1.328;2022-12-18T08:30:08;0.30;99.90
22364;DHT22;11349;53.412;-1.328;2022-12-18T08:32:34;0.30;99.90
22364;DHT22;11349;53.412;-1.328;2022-12-18T08:34:59;0.50;99.90
22364;DHT22;11349;53.412;-1.328;2022-12-18T08:37:25;0.70;99.90
22364;DHT22;11349;53.412;-1.328;2022-12-18T08:39:51;0.50;99.90
22364;DHT22;11349;53.412;-1.328;2022-12-18T08:42:16;0.20;99.90
22364;DHT22;11349;53.412;-1.328;2022-12-18T08:45:01;0.20;99.90
22364;DHT22;11349;53.412;-1.328;2022-12-18T08:47:27;0.20;99.90
22364;DHT22;11349;53.412;-1.328;2022-12-18T08:49:52;0.20;99.90
22364;DHT22;11349;53.412;-1.328;2022-12-18T08:52:18;0.30;99.90
22364;DHT22;11349;53.412;-1.328;2022-12-18T08:54:44;0.20;99.90
22364;DHT22;11349;53.412;-1.328;2022-12-18T08:57:09;0.30;99.90
22364;DHT22;11349;53.412;-1.328;2022-12-18T08:59:35;0.20;99.90
22364;DHT22;11349;53.412;-1.328;2022-12-18T09:02:01;0.60;99.90
22364;DHT22;11349;53.412;-1.328;2022-12-18T09:04:26;0.30;99.90
22364;DHT22;11349;53.412;-1.328;2022-12-18T09:06:52;0.40;99.90
22364;DHT22;11349;53.412;-1.328;2022-12-18T09:09:18;0.20;99.90
22364;DHT22;11349;53.412;-1.328;2022-12-18T09:11:44;0.10;99.90
22364;DHT22;11349;53.412;-1.328;2022-12-18T09:14:10;0.30;99.90
22364;DHT22;11349;53.412;-1.328;2022-12-18T09:16:36;0.30;99.90
22364;DHT22;11349;53.412;-1.328;2022-12-18T09:19:03;0.10;99.90
22364;DHT22;11349;53.412;-1.328;2022-12-18T09:21:34;0.10;99.90
22364;DHT22;11349;53.412;-1.328;2022-12-18T09:24:00;0.20;99.90
22364;DHT22;11349;53.412;-1.328;2022-12-18T09:26:26;0.10;99.90
22364;DHT22;11349;53.412;-1.328;2022-12-18T09:28:52;0.10;99.90
22364;DHT22;11349;53.412;-1.328;2022-12-18T09:31:20;0.10;99.90
22364;DHT22;11349;53.412;-1.328;2022-12-18T09:33:46;0.00;99.90
22364;DHT22;11349;53.412;-1.328;2022-12-18T09:36:14;0.20;99.90
22364;DHT22;11349;53.412;-1.328;2022-12-18T09:38:41;0.20;99.90
22364;DHT22;11349;53.412;-1.328;2022-12-18T09:49:28;0.60;99.90
22364;DHT22;11349;53.412;-1.328;2022-12-18T09:52:04;0.40;99.90
22364;DHT22;11349;53.412;-1.328;2022-12-18T09:54:39;0.40;99.90
22364;DHT22;11349;53.412;-1.328;2022-12-18T09:57:06;0.50;99.90
22364;DHT22;11349;53.412;-1.328;2022-12-18T09:59:38;0.20;99.90
22364;DHT22;11349;53.412;-1.328;2022-12-18T10:02:18;0.30;99.90
22364;DHT22;11349;53.412;-1.328;2022-12-18T10:05:06;0.20;99.90
22364;DHT22;11349;53.412;-1.328;2022-12-18T10:21:32;0.40;99.90
22364;DHT22;11349;53.412;-1.328;2022-12-18T10:27:04;0.30;99.90
22364;DHT22;11349;53.412;-1.328;2022-12-18T10:29:34;0.30;99.90
22364;DHT22;11349;53.412;-1.328;2022-12-18T10:32:00;0.40;99.90
22364;DHT22;11349;53.412;-1.328;2022-12-18T10:34:26;0.30;99.90
22364;DHT22;11349;53.412;-1.328;2022-12-18T10:36:51;0.40;99.90
22364;DHT22;11349;53.412;-1.328;2022-12-18T10:39:20;0.40;99.90
22364;DHT22;11349;53.412;-1.328;2022-12-18T10:41:48;0.30;99.90
22364;DHT22;11349;53.412;-1.328;2022-12-18T10:44:23;0.60;99.90
22364;DHT22;11349;53.412;-1.328;2022-12-18T10:46:55;0.40;99.90
22364;DHT22;11349;53.412;-1.328;2022-12-18T10:49:31;0.50;99.90
22364;DHT22;11349;53.412;-1.328;2022-12-18T10:52:20;0.40;99.90
22364;DHT22;11349;53.412;-1.328;2022-12-18T10:54:52;0.30;99.90
22364;DHT22;11349;53.412;-1.328;2022-12-18T10:57:39;0.50;99.90
22364;DHT22;11349;53.412;-1.328;2022-12-18T11:00:41;0.40;99.90
22364;DHT22;11349;53.412;-1.328;2022-12-18T11:03:34;0.40;99.90
22364;DHT22;11349;53.412;-1.328;2022-12-18T11:08:34;0.40;99.90
22364;DHT22;11349;53.412;-1.328;2022-12-18T11:11:00;0.40;99.90
22364;DHT22;11349;53.412;-1.328;2022-12-18T11:13:28;0.50;99.90
22364;DHT22;11349;53.412;-1.328;2022-12-18T11:15:54;0.50;99.90
22364;DHT22;11349;53.412;-1.328;2022-12-18T11:18:34;0.50;99.90
22364;DHT22;11349;53.412;-1.328;2022-12-18T11:21:05;0.50;99.90
22364;DHT22;11349;53.412;-1.328;2022-12-18T11:23:34;0.50;99.90
22364;DHT22;11349;53.412;-1.328;2022-12-18T11:26:02;0.60;99.90
22364;DHT22;11349;53.412;-1.328;2022-12-18T11:28:35;0.70;99.90
22364;DHT22;11349;53.412;-1.328;2022-12-18T11:31:28;0.70;99.90
22364;DHT22;11349;53.412;-1.328;2022-12-18T11:36:38;1.00;99.90
22364;DHT22;11349;53.412;-1.328;2022-12-18T11:39:39;0.90;99.90
22364;DHT22;11349;53.412;-1.328;2022-12-18T11:42:17;0.70;99.90
22364;DHT22;11349;53.412;-1.328;2022-12-18T11:47:40;0.70;99.90
22364;DHT22;11349;53.412;-1.328;2022-12-18T11:50:17;0.80;99.90
22364;DHT22;11349;53.412;-1.328;2022-12-18T11:52:44;0.90;99.90
22364;DHT22;11349;53.412;-1.328;2022-12-18T12:01:09;1.20;99.90
22364;DHT22;11349;53.412;-1.328;2022-12-18T12:09:20;1.00;99.90
22364;DHT22;11349;53.412;-1.328;2022-12-18T12:15:15;1.00;99.90
22364;DHT22;11349;53.412;-1.328;2022-12-18T12:26:13;1.30;99.90
22364;DHT22;11349;53.412;-1.328;2022-12-18T12:29:15;1.20;99.90
22364;DHT22;11349;53.412;-1.328;2022-12-18T12:34:32;1.30;99.90
22364;DHT22;11349;53.412;-1.328;2022-12-18T12:37:25;1.30;99.90
22364;DHT22;11349;53.412;-1.328;2022-12-18T12:39:56;1.40;99.90
22364;DHT22;11349;53.412;-1.328;2022-12-18T12:42:33;1.50;99.90
22364;DHT22;11349;53.412;-1.328;2022-12-18T12:45:37;1.50;99.90
22364;DHT22;11349;53.412;-1.328;2022-12-18T12:48:11;1.40;99.90
22364;DHT22;11349;53.412;-1.328;2022-12-18T12:50:40;1.40;99.90
22364;DHT22;11349;53.412;-1.328;2022-12-18T12:53:09;1.50;99.90
22364;DHT22;11349;53.412;-1.328;2022-12-18T12:55:42;1.50;99.90
22364;DHT22;11349;53.412;-1.328;2022-12-18T13:01:28;1.50;99.90
22364;DHT22;11349;53.412;-1.328;2022-12-18T13:07:15;1.80;99.90
22364;DHT22;11349;53.412;-1.328;2022-12-18T13:10:12;1.80;99.90
22364;DHT22;11349;53.412;-1.328;2022-12-18T13:13:02;1.80;99.90
22364;DHT22;11349;53.412;-1.328;2022-12-18T13:15:36;1.80;99.90
22364;DHT22;11349;53.412;-1.328;2022-12-18T13:23:34;1.70;99.90
22364;DHT22;11349;53.412;-1.328;2022-12-18T13:28:53;1.70;99.90
22364;DHT22;11349;53.412;-1.328;2022-12-18T13:36:45;1.80;99.90
22364;DHT22;11349;53.412;-1.328;2022-12-18T13:39:25;1.60;99.90
22364;DHT22;11349;53.412;-1.328;2022-12-18T13:44:39;1.60;99.90
22364;DHT22;11349;53.412;-1.328;2022-12-18T13:49:54;1.60;99.90
22364;DHT22;11349;53.412;-1.328;2022-12-18T13:52:26;1.50;99.90
22364;DHT22;11349;53.412;-1.328;2022-12-18T13:55:01;1.60;99.90
22364;DHT22;11349;53.412;-1.328;2022-12-18T13:59:55;1.70;99.90
22364;DHT22;11349;53.412;-1.328;2022-12-18T14:02:23;1.70;99.90
22364;DHT22;11349;53.412;-1.328;2022-12-18T14:04:50;1.70;99.90
22364;DHT22;11349;53.412;-1.328;2022-12-18T14:07:24;1.60;99.90
22364;DHT22;11349;53.412;-1.328;2022-12-18T14:09:55;1.60;99.90
22364;DHT22;11349;53.412;-1.328;2022-12-18T14:12:32;1.60;99.90
22364;DHT22;11349;53.412;-1.328;2022-12-18T14:18:01;1.80;99.90
22364;DHT22;11349;53.412;-1.328;2022-12-18T14:20:32;1.90;99.90
22364;DHT22;11349;53.412;-1.328;2022-12-18T14:22:58;1.90;99.90
22364;DHT22;11349;53.412;-1.328;2022-12-18T14:25:27;1.90;99.90
22364;DHT22;11349;53.412;-1.328;2022-12-18T14:30:39;1.90;99.90
22364;DHT22;11349;53.412;-1.328;2022-12-18T14:33:10;2.20;99.90
22364;DHT22;11349;53.412;-1.328;2022-12-18T14:35:53;2.40;99.90
22364;DHT22;11349;53.412;-1.328;2022-12-18T14:38:22;2.40;99.90
22364;DHT22;11349;53.412;-1.328;2022-12-18T14:41:13;2.50;99.90
22364;DHT22;11349;53.412;-1.328;2022-12-18T14:43:41;2.20;99.90
22364;DHT22;11349;53.412;-1.328;2022-12-18T14:46:39;2.20;99.90
22364;DHT22;11349;53.412;-1.328;2022-12-18T14:51:56;3.20;99.90
22364;DHT22;11349;53.412;-1.328;2022-12-18T14:54:24;2.80;99.90
22364;DHT22;11349;53.412;-1.328;2022-12-18T14:57:01;2.70;99.90
22364;DHT22;11349;53.412;-1.328;2022-12-18T14:59:28;2.70;99.90
22364;DHT22;11349;53.412;-1.328;2022-12-18T15:02:08;2.30;99.90
22364;DHT22;11349;53.412;-1.328;2022-12-18T15:04:38;2.10;99.90
22364;DHT22;11349;53.412;-1.328;2022-12-18T15:07:19;2.00;99.90
22364;DHT22;11349;53.412;-1.328;2022-12-18T15:15:05;2.50;99.90
22364;DHT22;11349;53.412;-1.328;2022-12-18T15:17:57;2.30;99.90
22364;DHT22;11349;53.412;-1.328;2022-12-18T15:20:23;2.30;99.90
22364;DHT22;11349;53.412;-1.328;2022-12-18T15:22:49;2.10;99.90
22364;DHT22;11349;53.412;-1.328;2022-12-18T15:25:38;2.20;99.90
22364;DHT22;11349;53.412;-1.328;2022-12-18T15:28:20;2.40;99.90
22364;DHT22;11349;53.412;-1.328;2022-12-18T15:36:19;2.00;99.90
22364;DHT22;11349;53.412;-1.328;2022-12-18T15:38:49;2.00;99.90
22364;DHT22;11349;53.412;-1.328;2022-12-18T15:41:18;2.30;99.90
22364;DHT22;11349;53.412;-1.328;2022-12-18T15:43:46;2.30;99.90
22364;DHT22;11349;53.412;-1.328;2022-12-18T15:46:17;2.30;99.90
22364;DHT22;11349;53.412;-1.328;2022-12-18T15:48:48;2.20;99.90
22364;DHT22;11349;53.412;-1.328;2022-12-18T15:51:16;2.30;99.90
22364;DHT22;11349;53.412;-1.328;2022-12-18T15:53:43;2.40;99.90
22364;DHT22;11349;53.412;-1.328;2022-12-18T15:56:11;2.20;99.90
22364;DHT22;11349;53.412;-1.328;2022-12-18T15:58:56;2.10;99.90
22364;DHT22;11349;53.412;-1.328;2022-12-18T16:01:23;2.10;99.90
22364;DHT22;11349;53.412;-1.328;2022-12-18T16:03:50;2.20;99.90
22364;DHT22;11349;53.412;-1.328;2022-12-18T16:06:16;2.40;99.90
22364;DHT22;11349;53.412;-1.328;2022-12-18T16:08:42;2.60;99.90
22364;DHT22;11349;53.412;-1.328;2022-12-18T16:11:34;2.60;99.90
22364;DHT22;11349;53.412;-1.328;2022-12-18T16:14:15;2.80;99.90
22364;DHT22;11349;53.412;-1.328;2022-12-18T16:16:41;2.80;99.90
22364;DHT22;11349;53.412;-1.328;2022-12-18T16:19:07;2.70;99.90
22364;DHT22;11349;53.412;-1.328;2022-12-18T16:21:33;2.70;99.90
22364;DHT22;11349;53.412;-1.328;2022-12-18T16:23:59;2.90;99.90
22364;DHT22;11349;53.412;-1.328;2022-12-18T16:26:24;2.90;99.90
22364;DHT22;11349;53.412;-1.328;2022-12-18T16:28:50;2.70;99.90
22364;DHT22;11349;53.412;-1.328;2022-12-18T16:31:16;2.50;99.90
22364;DHT22;11349;53.412;-1.328;2022-12-18T16:33:41;2.70;99.90
22364;DHT22;11349;53.412;-1.328;2022-12-18T16:36:07;3.00;99.90
22364;DHT22;11349;53.412;-1.328;2022-12-18T16:38:33;2.90;99.90
22364;DHT22;11349;53.412;-1.328;2022-12-18T16:40:59;2.70;99.90
22364;DHT22;11349;53.412;-1.328;2022-12-18T16:43:43;3.00;99.90
22364;DHT22;11349;53.412;-1.328;2022-12-18T16:46:09;2.90;99.90
22364;DHT22;11349;53.412;-1.328;2022-12-18T16:48:34;3.00;99.90
22364;DHT22;11349;53.412;-1.328;2022-12-18T16:51:02;2.80;99.90
22364;DHT22;11349;53.412;-1.328;2022-12-18T16:53:28;2.50;99.90
22364;DHT22;11349;53.412;-1.328;2022-12-18T16:55:55;2.70;99.90
22364;DHT22;11349;53.412;-1.328;2022-12-18T16:58:21;2.50;99.90
22364;DHT22;11349;53.412;-1.328;2022-12-18T17:00:47;2.40;99.90
22364;DHT22;11349;53.412;-1.328;2022-12-18T17:03:12;2.50;99.90
22364;DHT22;11349;53.412;-1.328;2022-12-18T17:05:38;2.70;99.90
22364;DHT22;11349;53.412;-1.328;2022-12-18T17:08:04;2.50;99.90
22364;DHT22;11349;53.412;-1.328;2022-12-18T17:10:30;2.70;99.90
22364;DHT22;11349;53.412;-1.328;2022-12-18T17:12:56;3.00;99.90
22364;DHT22;11349;53.412;-1.328;2022-12-18T17:15:21;2.70;99.90
22364;DHT22;11349;53.412;-1.328;2022-12-18T17:17:47;2.90;99.90
22364;DHT22;11349;53.412;-1.328;2022-12-18T17:20:13;2.80;99.90
22364;DHT22;11349;53.412;-1.328;2022-12-18T17:22:39;2.90;99.90
22364;DHT22;11349;53.412;-1.328;2022-12-18T17:25:05;2.80;99.90
22364;DHT22;11349;53.412;-1.328;2022-12-18T17:27:31;2.80;99.90
22364;DHT22;11349;53.412;-1.328;2022-12-18T17:29:57;2.70;99.90
22364;DHT22;11349;53.412;-1.328;2022-12-18T17:32:23;2.70;99.90
22364;DHT22;11349;53.412;-1.328;2022-12-18T17:34:48;2.90;99.90
22364;DHT22;11349;53.412;-1.328;2022-12-18T17:37:14;2.70;99.90
22364;DHT22;11349;53.412;-1.328;2022-12-18T17:39:40;2.80;99.90
22364;DHT22;11349;53.412;-1.328;2022-12-18T17:42:06;2.70;99.90
22364;DHT22;11349;53.412;-1.328;2022-12-18T17:44:35;3.10;99.90
22364;DHT22;11349;53.412;-1.328;2022-12-18T17:47:00;2.90;99.90
22364;DHT22;11349;53.412;-1.328;2022-12-18T17:49:26;3.30;99.90
22364;DHT22;11349;53.412;-1.328;2022-12-18T17:51:52;3.60;99.90
22364;DHT22;11349;53.412;-1.328;2022-12-18T17:54:18;3.30;99.90
22364;DHT22;11349;53.412;-1.328;2022-12-18T17:56:44;3.70;99.90
22364;DHT22;11349;53.412;-1.328;2022-12-18T17:59:10;3.90;99.90
22364;DHT22;11349;53.412;-1.328;2022-12-18T18:01:36;4.20;99.90
22364;DHT22;11349;53.412;-1.328;2022-12-18T18:04:03;4.20;99.90